createdAt,value
2023-05-14T00:01:02.599Z,5.42
2023-05-14T00:03:31.914Z,5.46
2023-05-14T00:05:58.903Z,5.47
2023-05-14T00:08:26.106Z,5.47
2023-05-14T00:10:53.235Z,5.51
2023-05-14T00:13:20.348Z,5.57
2023-05-14T00:15:47.154Z,5.63
2023-05-14T00:18:14.218Z,5.64
2023-05-14T00:20:43.628Z,5.62
2023-05-14T00:23:10.817Z,5.69
2023-05-14T00:25:37.998Z,5.64
2023-05-14T00:28:05.455Z,5.69
2023-05-14T00:30:32.425Z,5.59
2023-05-14T00:32:59.436Z,5.55
2023-05-14T00:35:27.117Z,5.56
2023-05-14T00:37:55.700Z,5.56
2023-05-14T00:40:25.640Z,5.57
2023-05-14T00:42:53.444Z,5.60
2023-05-14T00:45:20.544Z,5.64
2023-05-14T00:47:48.067Z,5.70
2023-05-14T00:50:16.165Z,5.74
2023-05-14T00:52:43.193Z,5.77
2023-05-14T00:55:13.851Z,5.80
2023-05-14T00:57:40.760Z,5.79
2023-05-14T01:00:09.324Z,5.85
2023-05-14T01:02:36.501Z,5.91
2023-05-14T01:05:04.221Z,5.95
2023-05-14T01:07:46.836Z,5.96
2023-05-14T01:10:25.506Z,6.09
2023-05-14T01:13:02.282Z,6.15
2023-05-14T01:15:32.312Z,6.10
2023-05-14T01:18:05.466Z,6.08
2023-05-14T01:20:32.887Z,6.05
2023-05-14T01:23:04.253Z,5.89
2023-05-14T01:25:31.428Z,5.84
2023-05-14T01:28:05.518Z,5.78
2023-05-14T01:30:35.903Z,5.79
2023-05-14T01:33:05.821Z,5.76
2023-05-14T01:35:33.491Z,5.74
2023-05-14T01:38:04.496Z,5.86
2023-05-14T01:40:35.215Z,5.86
2023-05-14T01:43:03.698Z,5.89
2023-05-14T01:45:31.509Z,5.93
2023-05-14T01:47:58.451Z,5.96
2023-05-14T01:50:25.764Z,5.97
2023-05-14T01:52:53.053Z,5.85
2023-05-14T01:55:22.045Z,5.77
2023-05-14T01:57:50.249Z,5.70
2023-05-14T02:00:17.574Z,5.66
2023-05-14T02:02:44.750Z,5.68
2023-05-14T02:05:12.502Z,5.69
2023-05-14T02:07:39.541Z,5.78
2023-05-14T02:10:07.963Z,5.81
2023-05-14T02:12:35.005Z,5.77
2023-05-14T02:15:04.034Z,5.80
2023-05-14T02:17:31.022Z,5.89
2023-05-14T02:20:03.021Z,5.98
2023-05-14T02:22:32.254Z,5.82
2023-05-14T02:24:59.088Z,5.68
2023-05-14T02:27:26.333Z,5.64
2023-05-14T02:29:53.255Z,5.60
2023-05-14T02:32:21.969Z,5.59
2023-05-14T02:34:49.167Z,5.63
2023-05-14T02:37:16.627Z,5.60
2023-05-14T02:39:43.971Z,5.61
2023-05-14T02:42:10.923Z,5.62
2023-05-14T02:44:38.176Z,5.68
2023-05-14T02:47:08.666Z,5.66
2023-05-14T02:49:37.533Z,5.66
2023-05-14T02:52:05.238Z,5.72
2023-05-14T02:54:32.122Z,5.69
2023-05-14T02:56:59.213Z,5.77
2023-05-14T02:59:26.656Z,5.77
2023-05-14T03:01:54.180Z,5.74
2023-05-14T03:04:22.901Z,5.79
2023-05-14T03:06:54.170Z,5.98
2023-05-14T03:09:23.222Z,5.91
2023-05-14T03:11:50.995Z,5.75
2023-05-14T03:14:18.586Z,5.66
2023-05-14T03:16:45.792Z,5.69
2023-05-14T03:19:13.167Z,5.67
2023-05-14T03:21:40.468Z,5.67
2023-05-14T03:24:11.041Z,5.67
2023-05-14T03:26:38.226Z,5.66
2023-05-14T03:29:05.029Z,5.70
2023-05-14T03:31:33.175Z,5.73
2023-05-14T03:34:00.534Z,5.73
2023-05-14T03:36:27.410Z,5.66
2023-05-14T03:38:54.716Z,5.67
2023-05-14T03:41:24.896Z,5.72
2023-05-14T03:43:52.968Z,5.76
2023-05-14T03:46:19.919Z,5.76
2023-05-14T03:48:46.957Z,5.69
2023-05-14T03:51:13.771Z,5.71
2023-05-14T03:53:41.356Z,5.68
2023-05-14T03:56:08.610Z,5.69
2023-05-14T03:58:39.748Z,5.69
2023-05-14T04:01:06.853Z,5.76
2023-05-14T04:03:36.078Z,5.78
2023-05-14T04:06:03.793Z,5.82
2023-05-14T04:08:31.519Z,5.86
2023-05-14T04:11:00.576Z,5.85
2023-05-14T04:13:27.461Z,5.82
2023-05-14T04:16:02.115Z,5.78
2023-05-14T04:18:30.219Z,5.84
2023-05-14T04:21:03.419Z,5.84
2023-05-14T04:23:33.814Z,5.82
2023-05-14T04:26:31.651Z,5.85
2023-05-14T04:31:44.626Z,5.85
2023-05-14T04:34:11.907Z,5.83
2023-05-14T04:36:42.960Z,5.85
2023-05-14T04:39:18.293Z,5.83
2023-05-14T04:41:50.156Z,5.78
2023-05-14T04:44:25.332Z,5.73
2023-05-14T04:47:07.012Z,5.84
2023-05-14T04:49:43.531Z,5.89
2023-05-14T04:52:20.239Z,5.81
2023-05-14T04:54:54.534Z,5.77
2023-05-14T04:57:23.998Z,5.78
2023-05-14T05:00:02.582Z,5.84
2023-05-14T05:02:38.962Z,5.85
2023-05-14T05:05:15.512Z,5.86
2023-05-14T05:07:54.197Z,5.89
2023-05-14T05:10:30.270Z,5.95
2023-05-14T05:13:30.868Z,5.96
2023-05-14T05:16:11.784Z,6.01
2023-05-14T05:18:53.934Z,6.06
2023-05-14T05:21:30.894Z,6.01
2023-05-14T05:24:13.929Z,5.96
2023-05-14T05:26:44.421Z,6.03
2023-05-14T05:29:14.280Z,6.06
2023-05-14T05:37:43.093Z,5.82
2023-05-14T05:40:18.519Z,5.85
2023-05-14T05:45:43.411Z,5.96
2023-05-14T05:48:19.104Z,6.00
2023-05-14T05:50:57.923Z,5.98
2023-05-14T05:53:34.578Z,6.06
2023-05-14T05:56:15.242Z,6.02
2023-05-14T05:58:50.038Z,6.09
2023-05-14T06:04:20.417Z,6.21
2023-05-14T06:06:57.902Z,6.36
2023-05-14T06:09:29.906Z,6.48
2023-05-14T06:12:18.554Z,6.60
2023-05-14T06:14:58.273Z,6.68
2023-05-14T06:17:34.868Z,6.74
2023-05-14T06:20:17.867Z,6.79
2023-05-14T06:25:46.263Z,6.84
2023-05-14T06:28:27.221Z,6.82
2023-05-14T06:31:00.897Z,6.83
2023-05-14T06:33:48.196Z,6.86
2023-05-14T06:36:23.106Z,6.88
2023-05-14T06:38:57.388Z,6.91
2023-05-14T06:41:29.777Z,6.91
2023-05-14T06:44:05.341Z,6.71
2023-05-14T06:46:36.423Z,6.74
2023-05-14T06:49:15.714Z,6.83
2023-05-14T06:51:44.330Z,6.88
2023-05-14T06:54:28.959Z,6.93
2023-05-14T06:56:58.990Z,6.95
2023-05-14T06:59:33.830Z,6.99
2023-05-14T07:02:08.384Z,7.01
2023-05-14T07:04:42.004Z,7.00
2023-05-14T07:07:12.275Z,6.96
2023-05-14T07:09:51.024Z,6.93
2023-05-14T07:12:21.533Z,6.92
2023-05-14T07:14:56.096Z,6.88
2023-05-14T07:17:23.101Z,6.91
2023-05-14T07:19:50.688Z,6.93
2023-05-14T07:22:21.173Z,6.94
2023-05-14T07:24:49.677Z,6.94
2023-05-14T07:27:17.447Z,6.61
2023-05-14T07:29:44.538Z,6.74
2023-05-14T07:32:13.334Z,6.78
2023-05-14T07:34:42.609Z,6.77
2023-05-14T07:37:09.703Z,6.78
2023-05-14T07:39:36.659Z,6.81
2023-05-14T07:42:05.722Z,6.83
2023-05-14T07:44:32.952Z,6.86
2023-05-14T07:46:59.880Z,6.90
2023-05-14T07:49:49.107Z,6.88
2023-05-14T07:52:16.152Z,6.90
2023-05-14T07:54:42.930Z,6.93
2023-05-14T07:57:11.785Z,6.98
2023-05-14T07:59:41.498Z,7.04
2023-05-14T08:06:19.940Z,7.20
2023-05-14T08:09:42.717Z,7.32
2023-05-14T08:16:41.115Z,7.28
2023-05-14T08:23:51.374Z,7.19
2023-05-14T08:26:21.258Z,7.16
2023-05-14T08:28:49.506Z,7.16
2023-05-14T08:31:18.110Z,7.42
2023-05-14T08:33:45.463Z,7.57
2023-05-14T08:36:13.360Z,7.61
2023-05-14T08:41:34.139Z,7.75
2023-05-14T08:44:13.938Z,7.76
2023-05-14T08:46:48.858Z,7.76
2023-05-14T08:49:31.786Z,7.80
2023-05-14T08:52:01.508Z,7.86
2023-05-14T08:54:38.291Z,7.94
2023-05-14T08:57:30.152Z,8.01
2023-05-14T09:00:12.520Z,8.01
2023-05-14T09:02:54.607Z,7.99
2023-05-14T09:05:50.263Z,7.90
2023-05-14T09:08:24.384Z,7.85
2023-05-14T09:11:22.786Z,7.76
2023-05-14T09:13:52.334Z,7.74
2023-05-14T09:16:37.236Z,7.62
2023-05-14T09:19:27.603Z,7.61
2023-05-14T09:21:58.571Z,7.71
2023-05-14T09:24:31.746Z,7.86
2023-05-14T09:27:24.999Z,8.02
2023-05-14T09:29:52.398Z,8.12
2023-05-14T09:32:30.199Z,8.19
2023-05-14T09:38:07.882Z,8.37
2023-05-14T09:40:36.821Z,8.44
2023-05-14T09:43:11.382Z,8.48
2023-05-14T09:45:38.263Z,8.62
2023-05-14T09:48:09.965Z,8.68
2023-05-14T09:50:45.673Z,8.69
2023-05-14T09:53:18.286Z,8.69
2023-05-14T09:55:54.410Z,8.65
2023-05-14T09:58:51.135Z,8.55
2023-05-14T10:01:44.837Z,8.38
2023-05-14T10:04:28.507Z,8.38
2023-05-14T10:07:21.337Z,8.34
2023-05-14T10:10:04.824Z,8.42
2023-05-14T10:12:48.672Z,8.46
2023-05-14T10:15:26.340Z,8.51
2023-05-14T10:18:13.974Z,8.45
2023-05-14T10:20:43.006Z,8.48
2023-05-14T10:23:11.465Z,8.41
2023-05-14T10:25:39.062Z,8.65
2023-05-14T10:28:06.748Z,8.76
2023-05-14T10:30:44.348Z,8.81
2023-05-14T10:33:13.991Z,8.82
2023-05-14T10:35:59.603Z,8.85
2023-05-14T10:38:27.702Z,8.67
2023-05-14T10:41:05.164Z,8.61
2023-05-14T10:43:36.986Z,8.58
2023-05-14T10:46:04.659Z,8.56
2023-05-14T10:48:32.854Z,8.48
2023-05-14T10:51:01.798Z,8.43
2023-05-14T10:53:36.733Z,8.33
2023-05-14T10:56:05.162Z,8.22
2023-05-14T10:58:35.694Z,8.10
2023-05-14T11:01:03.712Z,7.97
2023-05-14T11:03:30.892Z,7.91
2023-05-14T11:05:58.047Z,7.91
2023-05-14T11:08:29.282Z,7.82
2023-05-14T11:10:57.432Z,7.78
2023-05-14T11:53:41.624Z,7.21
2023-05-14T11:56:09.925Z,7.26
2023-05-14T12:23:39.077Z,7.07
2023-05-14T12:26:08.143Z,7.10
2023-05-14T12:28:38.265Z,7.10
2023-05-14T12:31:05.770Z,7.20
2023-05-14T12:33:32.621Z,7.32
2023-05-14T12:36:04.494Z,7.38
2023-05-14T12:38:38.556Z,7.46
2023-05-14T12:41:05.408Z,7.48
2023-05-14T12:43:32.195Z,7.46
2023-05-14T12:45:58.914Z,7.50
2023-05-14T12:48:25.657Z,7.50
2023-05-14T12:50:52.464Z,7.49
2023-05-14T12:53:19.286Z,7.48
2023-05-14T12:55:47.503Z,7.50
2023-05-14T12:58:14.294Z,7.46
2023-05-14T13:00:41.077Z,7.44
2023-05-14T13:03:08.789Z,7.43
2023-05-14T13:05:36.260Z,7.45
2023-05-14T13:08:03.821Z,7.21
2023-05-14T13:10:30.998Z,7.08
2023-05-14T13:12:59.699Z,7.04
2023-05-14T13:15:27.927Z,6.97
2023-05-14T13:17:55.495Z,7.03
2023-05-14T13:20:22.661Z,6.96
2023-05-14T13:22:50.050Z,6.88
2023-05-14T13:25:17.267Z,6.87
2023-05-14T13:27:44.465Z,6.93
2023-05-14T13:30:14.006Z,6.98
2023-05-14T13:32:42.333Z,7.03
2023-05-14T13:35:11.268Z,7.07
2023-05-14T13:37:40.114Z,7.11
2023-05-14T13:40:08.340Z,7.14
2023-05-14T13:42:35.650Z,7.17
2023-05-14T13:45:02.547Z,7.22
2023-05-14T13:47:31.578Z,7.24
2023-05-14T13:49:59.100Z,7.24
2023-05-14T13:52:27.478Z,7.27
2023-05-14T13:54:54.751Z,7.29
2023-05-14T13:57:22.148Z,7.31
2023-05-14T13:59:49.569Z,7.31
2023-05-14T14:02:16.904Z,7.21
2023-05-14T14:04:45.330Z,7.18
2023-05-14T14:07:12.834Z,7.10
2023-05-14T14:09:40.550Z,7.00
2023-05-14T14:12:08.229Z,6.97
2023-05-14T14:14:35.260Z,6.96
2023-05-14T14:17:02.432Z,6.97
2023-05-14T14:19:29.660Z,7.02
2023-05-14T14:21:58.105Z,7.08
2023-05-14T14:24:26.203Z,7.14
2023-05-14T14:26:52.981Z,7.21
2023-05-14T14:29:20.065Z,7.22
2023-05-14T14:31:46.889Z,7.26
2023-05-14T14:34:13.645Z,7.25
2023-05-14T14:36:40.469Z,7.23
2023-05-14T14:39:08.625Z,7.15
2023-05-14T14:41:35.473Z,7.13
2023-05-14T14:44:02.873Z,7.06
2023-05-14T14:46:29.722Z,7.06
2023-05-14T14:48:58.757Z,7.10
2023-05-14T14:51:25.726Z,6.93
2023-05-14T14:53:52.507Z,6.92
2023-05-14T14:56:20.669Z,6.70
2023-05-14T14:58:47.536Z,6.58
2023-05-14T15:01:14.701Z,6.60
2023-05-14T15:03:41.797Z,6.71
2023-05-14T15:06:08.684Z,6.80
2023-05-14T15:08:35.930Z,6.76
2023-05-14T15:11:02.743Z,6.72
2023-05-14T15:13:31.015Z,6.60
2023-05-14T15:15:58.039Z,6.52
2023-05-14T15:18:26.077Z,6.47
2023-05-14T15:20:52.905Z,6.49
2023-05-14T15:23:20.198Z,6.58
2023-05-14T15:25:47.039Z,6.67
2023-05-14T15:28:14.316Z,6.71
2023-05-14T15:30:43.165Z,6.73
2023-05-14T15:33:11.612Z,6.74
2023-05-14T15:35:38.456Z,6.76
2023-05-14T15:38:06.939Z,6.73
2023-05-14T15:40:33.821Z,6.73
2023-05-14T15:43:00.825Z,6.72
2023-05-14T15:45:27.695Z,6.61
2023-05-14T15:47:56.216Z,6.52
2023-05-14T15:50:23.233Z,6.45
2023-05-14T15:52:50.287Z,6.38
2023-05-14T15:55:17.900Z,6.37
2023-05-14T15:57:44.985Z,6.29
2023-05-14T16:00:12.763Z,6.30
2023-05-14T16:02:40.434Z,6.31
2023-05-14T16:05:09.862Z,6.27
2023-05-14T16:07:36.836Z,6.27
2023-05-14T16:10:04.474Z,6.24
2023-05-14T16:12:31.739Z,6.31
2023-05-14T16:14:58.955Z,6.35
2023-05-14T16:17:27.028Z,6.37
2023-05-14T16:19:56.350Z,6.31
2023-05-14T16:22:24.935Z,6.29
2023-05-14T16:24:51.870Z,6.34
2023-05-14T16:27:19.236Z,6.26
2023-05-14T16:29:46.119Z,6.26
2023-05-14T16:32:13.376Z,6.18
2023-05-14T16:34:40.393Z,6.17
2023-05-14T16:37:07.739Z,6.19
2023-05-14T16:39:36.217Z,6.16
2023-05-14T16:42:03.201Z,6.16
2023-05-14T16:44:30.071Z,6.20
2023-05-14T16:46:56.929Z,6.20
2023-05-14T16:49:24.382Z,6.16
2023-05-14T16:51:51.921Z,6.17
2023-05-14T16:54:18.761Z,6.25
2023-05-14T16:56:47.281Z,6.25
2023-05-14T16:59:14.192Z,6.22
2023-05-14T17:01:41.047Z,6.24
2023-05-14T17:04:08.087Z,6.17
2023-05-14T17:06:35.058Z,6.10
2023-05-14T17:09:02.102Z,6.18
2023-05-14T17:11:30.523Z,6.11
2023-05-14T17:13:59.144Z,6.00
2023-05-14T17:16:26.328Z,5.97
2023-05-14T17:18:53.237Z,5.91
2023-05-14T17:21:20.039Z,5.82
2023-05-14T17:23:47.874Z,5.91
2023-05-14T17:26:14.982Z,5.76
2023-05-14T17:28:42.544Z,5.72
2023-05-14T17:31:10.957Z,5.69
2023-05-14T17:33:38.138Z,5.77
2023-05-14T17:36:05.541Z,5.79
2023-05-14T17:38:32.701Z,5.71
2023-05-14T17:40:59.653Z,5.68
2023-05-14T17:43:26.537Z,5.67
2023-05-14T17:45:54.771Z,5.63
2023-05-14T17:48:25.064Z,5.56
2023-05-14T17:50:52.928Z,5.53
2023-05-14T17:53:20.000Z,5.50
2023-05-14T17:55:49.437Z,5.56
2023-05-14T17:58:16.646Z,5.52
2023-05-14T18:00:43.920Z,5.57
2023-05-14T18:03:10.956Z,5.58
2023-05-14T18:05:39.480Z,5.63
2023-05-14T18:08:09.505Z,5.64
2023-05-14T18:10:36.332Z,5.65
2023-05-14T18:13:03.388Z,5.61
2023-05-14T18:15:30.554Z,5.50
2023-05-14T18:17:57.512Z,5.45
2023-05-14T18:20:24.633Z,5.38
2023-05-14T18:22:53.091Z,5.32
2023-05-14T18:25:20.926Z,5.38
2023-05-14T18:27:49.232Z,5.32
2023-05-14T18:30:16.387Z,5.33
2023-05-14T18:32:44.568Z,5.28
2023-05-14T18:35:12.188Z,5.18
2023-05-14T18:37:39.435Z,5.11
2023-05-14T18:40:09.110Z,5.10
2023-05-14T18:42:36.096Z,5.08
2023-05-14T18:45:03.297Z,5.10
2023-05-14T18:47:30.247Z,5.19
2023-05-14T18:49:57.443Z,5.26
2023-05-14T18:52:24.422Z,5.31
2023-05-14T18:54:51.281Z,5.34
2023-05-14T18:57:20.175Z,5.21
2023-05-14T18:59:48.354Z,5.14
2023-05-14T19:02:15.268Z,5.21
2023-05-14T19:04:51.805Z,5.20
2023-05-14T19:07:20.303Z,5.16
2023-05-14T19:09:48.257Z,5.16
2023-05-14T19:12:15.143Z,5.16
2023-05-14T19:14:43.878Z,5.14
2023-05-14T19:17:11.067Z,5.14
2023-05-14T19:19:38.131Z,5.10
2023-05-14T19:22:05.708Z,5.03
2023-05-14T19:24:32.602Z,4.97
2023-05-14T19:26:59.509Z,5.07
2023-05-14T19:29:26.638Z,5.10
2023-05-14T19:31:55.089Z,5.07
2023-05-14T19:34:22.024Z,5.12
2023-05-14T19:36:49.043Z,5.11
2023-05-14T19:39:16.256Z,5.08
2023-05-14T19:41:43.945Z,5.05
2023-05-14T19:44:11.125Z,5.07
2023-05-14T19:46:38.665Z,4.97
2023-05-14T19:49:07.344Z,4.99
2023-05-14T19:51:34.332Z,5.04
2023-05-14T19:54:01.287Z,5.00
2023-05-14T19:56:28.372Z,5.02
2023-05-14T19:58:55.247Z,4.91
2023-05-14T20:01:22.115Z,4.95
2023-05-14T20:03:49.326Z,4.96
2023-05-14T20:06:17.709Z,4.89
2023-05-14T20:08:44.858Z,4.97
2023-05-14T20:11:11.743Z,4.97
2023-05-14T20:13:38.722Z,4.85
2023-05-14T20:16:06.070Z,4.84
2023-05-14T20:18:33.150Z,4.91
2023-05-14T20:21:00.063Z,4.96
2023-05-14T20:23:29.472Z,5.03
2023-05-14T20:25:56.504Z,5.01
2023-05-14T20:28:23.502Z,4.96
2023-05-14T20:30:50.311Z,4.91
2023-05-14T20:33:17.212Z,4.88
2023-05-14T20:35:44.200Z,4.82
2023-05-14T20:38:11.580Z,4.88
2023-05-14T20:40:41.257Z,4.94
2023-05-14T20:43:08.746Z,4.92
2023-05-14T20:45:35.710Z,4.91
2023-05-14T20:48:02.804Z,4.86
2023-05-14T20:50:29.700Z,4.89
2023-05-14T20:52:56.484Z,4.86
2023-05-14T20:55:23.712Z,4.85
2023-05-14T20:57:52.238Z,4.85
2023-05-14T21:00:19.890Z,4.86
2023-05-14T21:02:46.863Z,4.86
2023-05-14T21:05:14.194Z,4.84
2023-05-14T21:07:41.394Z,4.81
2023-05-14T21:10:09.772Z,4.75
2023-05-14T21:12:42.602Z,4.71
2023-05-14T21:15:15.789Z,4.63
2023-05-14T21:17:42.911Z,4.54
2023-05-14T21:20:10.621Z,4.61
2023-05-14T21:22:37.750Z,4.51
2023-05-14T21:25:05.893Z,4.53
2023-05-14T21:27:33.800Z,4.51
2023-05-14T21:30:00.906Z,4.58
2023-05-14T21:32:29.306Z,4.53
2023-05-14T21:34:56.295Z,4.53
2023-05-14T21:37:23.215Z,4.56
2023-05-14T21:39:50.251Z,4.57
2023-05-14T21:42:17.270Z,4.57
2023-05-14T21:44:44.198Z,4.49
2023-05-14T21:47:11.286Z,4.50
2023-05-14T21:49:40.717Z,4.57
2023-05-14T21:52:08.401Z,4.58
2023-05-14T21:54:35.450Z,4.58
2023-05-14T21:57:02.378Z,4.55
2023-05-14T21:59:29.502Z,4.56
2023-05-14T22:02:06.718Z,4.58
2023-05-14T22:04:34.489Z,4.57
2023-05-14T22:07:03.100Z,4.56
2023-05-14T22:09:30.766Z,4.55
2023-05-14T22:11:59.169Z,4.55
2023-05-14T22:14:26.115Z,4.54
2023-05-14T22:16:53.106Z,4.56
2023-05-14T22:19:20.439Z,4.47
2023-05-14T22:21:47.205Z,4.38
2023-05-14T22:24:16.042Z,4.43
2023-05-14T22:26:42.970Z,4.44
2023-05-14T22:29:09.913Z,4.54
2023-05-14T22:31:36.970Z,4.52
2023-05-14T22:34:04.014Z,4.52
2023-05-14T22:36:30.926Z,4.49
2023-05-14T22:38:57.751Z,4.47
2023-05-14T22:41:27.090Z,4.45
2023-05-14T22:43:56.659Z,4.22
2023-05-14T22:46:23.769Z,4.27
2023-05-14T22:48:51.086Z,4.30
2023-05-14T22:51:17.878Z,4.28
2023-05-14T22:53:44.726Z,4.20
2023-05-14T22:56:11.581Z,4.10
2023-05-14T22:58:41.100Z,4.14
2023-05-14T23:01:07.882Z,3.99
2023-05-14T23:03:35.132Z,4.06
2023-05-14T23:06:02.132Z,3.96
2023-05-14T23:08:28.925Z,3.98
2023-05-14T23:10:56.135Z,3.82
2023-05-14T23:13:23.260Z,3.71
2023-05-14T23:15:51.606Z,3.76
2023-05-14T23:18:18.593Z,3.75
2023-05-14T23:20:45.822Z,3.59
2023-05-14T23:23:13.863Z,3.46
2023-05-14T23:25:40.886Z,3.39
2023-05-14T23:28:07.734Z,3.38
2023-05-14T23:30:34.555Z,3.35
2023-05-14T23:33:03.023Z,3.27
2023-05-14T23:35:30.003Z,3.25
2023-05-14T23:37:56.882Z,3.19
2023-05-14T23:40:23.727Z,3.04
2023-05-14T23:42:50.936Z,2.92
2023-05-14T23:45:18.547Z,2.98
2023-05-14T23:47:46.254Z,3.00
2023-05-14T23:50:14.997Z,3.02
2023-05-14T23:52:41.954Z,2.94
2023-05-14T23:55:09.728Z,2.99
2023-05-14T23:57:36.683Z,3.01
